createdAt,value
2023-01-17T18:04:49.530Z,36.42
2023-01-17T18:06:38.763Z,32.85
2023-01-17T18:08:32.531Z,32.55
2023-01-17T18:10:19.955Z,31.48
2023-01-17T18:12:08.379Z,32.35
2023-01-17T18:14:00.570Z,31.35
2023-01-17T18:15:48.480Z,30.80
2023-01-17T18:17:36.092Z,30.00
2023-01-17T18:19:25.437Z,30.80
2023-01-17T18:21:16.042Z,33.05
2023-01-17T18:23:03.515Z,33.72
2023-01-17T18:24:50.873Z,29.50
2023-01-17T18:26:41.686Z,28.35
2023-01-17T18:28:29.296Z,28.20
2023-01-17T18:30:17.023Z,30.95
2023-01-17T18:32:04.880Z,26.40
2023-01-17T18:33:54.221Z,25.17
2023-01-17T18:35:41.693Z,24.50
2023-01-17T18:37:29.387Z,24.20
2023-01-17T18:39:19.631Z,17.48
2023-01-17T18:41:26.103Z,25.88
2023-01-17T18:43:13.779Z,25.98
2023-01-17T18:45:01.187Z,27.15
2023-01-17T18:46:49.124Z,31.52
2023-01-17T18:48:37.698Z,33.70
2023-01-17T18:50:32.770Z,39.60
2023-01-17T18:52:23.462Z,40.58
2023-01-17T18:54:11.015Z,40.13
2023-01-17T18:56:01.018Z,40.80
2023-01-17T18:57:48.836Z,38.42
2023-01-17T18:59:36.309Z,33.83
2023-01-17T19:03:13.444Z,26.40
2023-01-17T19:06:51.002Z,28.10
2023-01-17T19:08:38.707Z,30.90
2023-01-17T19:12:19.481Z,26.55
2023-01-17T19:14:08.068Z,28.48
2023-01-17T19:16:00.281Z,28.48
2023-01-17T19:17:48.083Z,30.88
2023-01-17T19:19:35.557Z,32.55
2023-01-17T19:21:26.005Z,29.95
2023-01-17T19:23:14.433Z,30.75
2023-01-17T19:25:02.450Z,31.70
2023-01-17T19:26:54.222Z,31.23
2023-01-17T19:28:43.846Z,29.02
2023-01-17T19:30:32.846Z,29.08
2023-01-17T19:32:21.640Z,29.45
2023-01-17T19:34:09.988Z,28.48
2023-01-17T19:36:04.404Z,29.25
2023-01-17T19:37:54.341Z,31.63
2023-01-17T19:39:42.063Z,33.30
2023-01-17T19:41:30.839Z,41.25
2023-01-17T19:43:19.031Z,49.58
2023-01-17T19:45:08.622Z,47.20
2023-01-17T19:46:57.096Z,41.45
2023-01-17T19:48:45.066Z,39.22
2023-01-17T19:52:22.500Z,42.05
2023-01-17T19:54:10.400Z,40.17
2023-01-17T19:55:58.647Z,39.60
2023-01-17T19:57:46.652Z,42.35
2023-01-17T19:59:34.992Z,44.95
2023-01-17T20:01:29.130Z,50.92
2023-01-17T20:03:17.981Z,55.92
2023-01-17T20:06:55.626Z,68.63
2023-01-17T20:08:45.727Z,71.63
2023-01-17T20:10:34.784Z,68.10
2023-01-17T20:12:23.810Z,64.15
2023-01-17T20:14:16.669Z,60.15
2023-01-17T20:16:07.807Z,59.05
2023-01-17T20:17:57.359Z,59.20
2023-01-17T20:19:46.636Z,60.38
2023-01-17T20:21:36.334Z,64.07
2023-01-17T20:23:25.156Z,61.78
2023-01-17T20:25:13.615Z,64.03
2023-01-17T20:27:06.271Z,67.15
2023-01-17T20:28:55.099Z,68.65
2023-01-17T20:30:43.411Z,72.03
2023-01-17T20:32:32.790Z,81.15
2023-01-17T20:34:26.081Z,82.40
2023-01-17T20:36:21.428Z,82.75
2023-01-17T20:38:15.355Z,73.82
2023-01-17T20:40:04.791Z,63.83
2023-01-17T20:41:53.626Z,60.00
2023-01-17T20:43:48.271Z,53.58
2023-01-17T20:45:36.985Z,53.53
2023-01-17T20:47:30.286Z,51.28
2023-01-17T20:49:20.430Z,52.88
2023-01-17T20:51:12.583Z,51.90
2023-01-17T20:53:01.477Z,54.17
2023-01-17T20:54:52.291Z,55.13
2023-01-17T20:56:41.291Z,55.63
2023-01-17T20:58:31.910Z,56.97
2023-01-17T21:00:23.182Z,55.97
2023-01-17T21:02:18.399Z,70.72
2023-01-17T21:07:12.423Z,63.70
2023-01-17T21:09:01.075Z,72.60
2023-01-17T21:10:54.354Z,77.45
2023-01-17T21:12:45.593Z,80.13
2023-01-17T21:14:35.186Z,78.15
2023-01-17T21:16:28.437Z,71.93
2023-01-17T21:18:18.103Z,69.07
2023-01-17T21:20:08.231Z,65.40
2023-01-17T21:21:57.572Z,62.53
2023-01-17T21:23:46.436Z,62.17
2023-01-17T21:25:38.859Z,66.97
2023-01-17T21:27:27.870Z,73.18
2023-01-17T21:29:16.811Z,94.82
2023-01-17T21:31:25.101Z,105.03
2023-01-17T21:33:13.569Z,124.43
2023-01-17T21:35:01.845Z,185.02
2023-01-17T21:36:51.741Z,159.63
2023-01-17T21:38:39.997Z,134.98
2023-01-17T21:40:28.260Z,122.43
2023-01-17T21:42:16.068Z,130.18
2023-01-17T21:44:09.091Z,132.60
2023-01-17T21:45:57.389Z,151.27
2023-01-17T21:47:46.353Z,142.77
2023-01-17T21:49:34.443Z,139.80
2023-01-17T21:51:22.827Z,152.30
2023-01-17T21:53:11.384Z,149.00
2023-01-17T21:55:17.360Z,129.10
2023-01-17T21:57:23.868Z,117.80
2023-01-17T21:59:11.951Z,99.43
2023-01-17T22:02:59.515Z,86.25
2023-01-17T22:04:47.307Z,86.75
2023-01-17T22:06:34.940Z,72.78
2023-01-17T22:08:23.316Z,68.65
2023-01-17T22:10:11.400Z,67.88
2023-01-17T22:13:46.649Z,63.70
2023-01-17T22:15:36.503Z,68.20
2023-01-17T22:17:23.956Z,65.35
2023-01-17T22:19:11.699Z,63.08
2023-01-17T22:21:03.105Z,64.35
2023-01-17T22:22:50.265Z,66.18
2023-01-17T22:24:37.923Z,66.13
2023-01-17T22:26:30.230Z,71.00
2023-01-17T22:28:17.622Z,70.60
2023-01-17T22:30:09.119Z,69.43
2023-01-17T22:31:56.385Z,65.43
2023-01-17T22:33:45.809Z,70.63
2023-01-17T22:35:33.806Z,60.90
2023-01-17T22:37:21.162Z,63.22
2023-01-17T22:39:10.003Z,65.28
2023-01-17T22:41:08.777Z,60.60
2023-01-17T22:42:56.484Z,58.85
2023-01-17T22:44:43.814Z,57.55
2023-01-17T22:46:33.481Z,56.20
2023-01-17T22:48:20.947Z,55.22
2023-01-17T22:50:09.390Z,45.90
2023-01-17T22:51:57.069Z,49.50
2023-01-17T22:53:47.304Z,49.58
2023-01-17T22:55:34.891Z,47.38
2023-01-17T22:57:23.294Z,50.97
2023-01-17T22:59:11.810Z,48.90
2023-01-17T23:01:13.957Z,48.95
2023-01-17T23:03:02.086Z,46.97
2023-01-17T23:06:38.850Z,46.35
2023-01-17T23:08:26.603Z,45.80
2023-01-17T23:10:34.434Z,45.38
2023-01-17T23:12:21.824Z,45.10
2023-01-17T23:14:22.554Z,43.80
2023-01-17T23:16:28.434Z,43.33
2023-01-17T23:18:34.645Z,45.35
2023-01-17T23:20:22.158Z,45.50
2023-01-17T23:22:21.398Z,44.40
2023-01-17T23:24:08.740Z,45.15
2023-01-17T23:26:00.327Z,45.58
2023-01-17T23:28:06.572Z,44.95
2023-01-17T23:29:54.094Z,44.23
2023-01-17T23:31:41.482Z,44.25
2023-01-17T23:33:28.792Z,43.15
2023-01-17T23:35:18.552Z,43.80
2023-01-17T23:37:05.822Z,44.92
2023-01-17T23:38:53.097Z,46.55
2023-01-17T23:40:40.933Z,57.45
2023-01-17T23:42:47.044Z,62.63
2023-01-17T23:44:34.596Z,58.60
2023-01-17T23:49:57.095Z,48.67
2023-01-17T23:51:44.529Z,62.05
2023-01-17T23:53:32.628Z,55.13
2023-01-17T23:55:19.991Z,55.15
2023-01-17T23:57:07.450Z,66.25
2023-01-17T23:58:54.764Z,65.65
